sensor_id;sensor_type;location;lat;lon;timestamp;P1;durP1;ratioP1;P2;durP2;ratioP2
40122;SDS011;25832;45.490;4.912;2022-11-20T00:01:41;9.48;;;4.18;;
40122;SDS011;25832;45.490;4.912;2022-11-20T00:04:08;11.98;;;4.88;;
40122;SDS011;25832;45.490;4.912;2022-11-20T00:06:35;9.38;;;4.68;;
40122;SDS011;25832;45.490;4.912;2022-11-20T00:09:01;12.02;;;4.53;;
40122;SDS011;25832;45.490;4.912;2022-11-20T00:11:27;6.93;;;4.68;;
40122;SDS011;25832;45.490;4.912;2022-11-20T00:13:55;11.80;;;5.57;;
40122;SDS011;25832;45.490;4.912;2022-11-20T00:16:24;12.82;;;5.63;;
40122;SDS011;25832;45.490;4.912;2022-11-20T00:18:51;13.23;;;5.47;;
40122;SDS011;25832;45.490;4.912;2022-11-20T00:21:19;15.27;;;7.18;;
40122;SDS011;25832;45.490;4.912;2022-11-20T00:23:47;11.55;;;6.60;;
40122;SDS011;25832;45.490;4.912;2022-11-20T00:26:14;12.82;;;6.28;;
40122;SDS011;25832;45.490;4.912;2022-11-20T00:28:41;11.05;;;6.28;;
40122;SDS011;25832;45.490;4.912;2022-11-20T00:31:09;11.82;;;6.32;;
40122;SDS011;25832;45.490;4.912;2022-11-20T00:33:37;11.98;;;5.90;;
40122;SDS011;25832;45.490;4.912;2022-11-20T00:36:04;10.68;;;6.03;;
40122;SDS011;25832;45.490;4.912;2022-11-20T00:38:31;8.52;;;4.80;;
40122;SDS011;25832;45.490;4.912;2022-11-20T00:40:58;9.63;;;5.13;;
40122;SDS011;25832;45.490;4.912;2022-11-20T00:43:25;10.73;;;4.65;;
40122;SDS011;25832;45.490;4.912;2022-11-20T00:45:55;10.70;;;5.45;;
40122;SDS011;25832;45.490;4.912;2022-11-20T00:48:22;9.63;;;4.82;;
40122;SDS011;25832;45.490;4.912;2022-11-20T00:50:48;9.10;;;4.93;;
40122;SDS011;25832;45.490;4.912;2022-11-20T00:53:14;6.53;;;4.00;;
40122;SDS011;25832;45.490;4.912;2022-11-20T00:55:39;10.43;;;5.38;;
40122;SDS011;25832;45.490;4.912;2022-11-20T00:58:05;8.65;;;5.18;;
40122;SDS011;25832;45.490;4.912;2022-11-20T01:00:31;9.63;;;4.70;;
40122;SDS011;25832;45.490;4.912;2022-11-20T01:02:57;10.20;;;5.18;;
40122;SDS011;25832;45.490;4.912;2022-11-20T01:05:22;7.88;;;4.25;;
40122;SDS011;25832;45.490;4.912;2022-11-20T01:07:48;9.13;;;4.85;;
40122;SDS011;25832;45.490;4.912;2022-11-20T01:10:14;10.05;;;4.60;;
40122;SDS011;25832;45.490;4.912;2022-11-20T01:12:40;9.65;;;4.38;;
40122;SDS011;25832;45.490;4.912;2022-11-20T01:15:05;8.18;;;4.60;;
40122;SDS011;25832;45.490;4.912;2022-11-20T01:17:32;11.68;;;4.25;;
40122;SDS011;25832;45.490;4.912;2022-11-20T01:19:58;10.75;;;5.03;;
40122;SDS011;25832;45.490;4.912;2022-11-20T01:22:24;10.70;;;4.85;;
40122;SDS011;25832;45.490;4.912;2022-11-20T01:24:49;10.55;;;4.88;;
40122;SDS011;25832;45.490;4.912;2022-11-20T01:27:15;10.18;;;4.60;;
40122;SDS011;25832;45.490;4.912;2022-11-20T01:29:40;9.90;;;4.10;;
40122;SDS011;25832;45.490;4.912;2022-11-20T01:32:06;5.93;;;4.18;;
40122;SDS011;25832;45.490;4.912;2022-11-20T01:34:32;8.85;;;4.28;;
40122;SDS011;25832;45.490;4.912;2022-11-20T01:36:57;8.18;;;4.28;;
40122;SDS011;25832;45.490;4.912;2022-11-20T01:39:24;8.77;;;4.32;;
40122;SDS011;25832;45.490;4.912;2022-11-20T01:41:51;9.85;;;5.47;;
40122;SDS011;25832;45.490;4.912;2022-11-20T01:44:50;9.02;;;5.43;;
40122;SDS011;25832;45.490;4.912;2022-11-20T01:50:22;11.50;;;5.50;;
40122;SDS011;25832;45.490;4.912;2022-11-20T01:55:21;8.52;;;5.00;;
40122;SDS011;25832;45.490;4.912;2022-11-20T01:57:50;9.98;;;5.75;;
40122;SDS011;25832;45.490;4.912;2022-11-20T02:00:17;9.30;;;5.25;;
40122;SDS011;25832;45.490;4.912;2022-11-20T02:02:55;11.65;;;5.70;;
40122;SDS011;25832;45.490;4.912;2022-11-20T02:07:52;10.95;;;5.80;;
40122;SDS011;25832;45.490;4.912;2022-11-20T02:10:19;11.85;;;5.43;;
40122;SDS011;25832;45.490;4.912;2022-11-20T02:12:45;10.15;;;5.63;;
40122;SDS011;25832;45.490;4.912;2022-11-20T02:15:29;9.38;;;6.15;;
40122;SDS011;25832;45.490;4.912;2022-11-20T02:17:57;6.80;;;4.85;;
40122;SDS011;25832;45.490;4.912;2022-11-20T02:20:23;8.45;;;5.05;;
40122;SDS011;25832;45.490;4.912;2022-11-20T02:22:50;10.70;;;5.88;;
40122;SDS011;25832;45.490;4.912;2022-11-20T02:25:27;9.18;;;5.22;;
40122;SDS011;25832;45.490;4.912;2022-11-20T02:27:55;10.05;;;5.93;;
40122;SDS011;25832;45.490;4.912;2022-11-20T02:30:21;11.88;;;6.57;;
40122;SDS011;25832;45.490;4.912;2022-11-20T02:32:46;10.38;;;5.75;;
40122;SDS011;25832;45.490;4.912;2022-11-20T02:37:43;9.65;;;5.55;;
40122;SDS011;25832;45.490;4.912;2022-11-20T02:40:12;12.82;;;5.93;;
40122;SDS011;25832;45.490;4.912;2022-11-20T02:42:37;9.10;;;5.30;;
40122;SDS011;25832;45.490;4.912;2022-11-20T02:45:04;10.35;;;5.47;;
40122;SDS011;25832;45.490;4.912;2022-11-20T02:47:30;8.90;;;5.10;;
40122;SDS011;25832;45.490;4.912;2022-11-20T02:49:56;10.27;;;6.25;;
40122;SDS011;25832;45.490;4.912;2022-11-20T02:52:22;8.20;;;5.85;;
40122;SDS011;25832;45.490;4.912;2022-11-20T02:54:48;8.25;;;4.70;;
40122;SDS011;25832;45.490;4.912;2022-11-20T02:57:14;6.85;;;4.70;;
40122;SDS011;25832;45.490;4.912;2022-11-20T02:59:40;8.45;;;4.68;;
40122;SDS011;25832;45.490;4.912;2022-11-20T03:02:05;6.50;;;4.55;;
40122;SDS011;25832;45.490;4.912;2022-11-20T03:04:31;5.80;;;4.30;;
40122;SDS011;25832;45.490;4.912;2022-11-20T03:06:57;8.23;;;4.78;;
40122;SDS011;25832;45.490;4.912;2022-11-20T03:09:22;10.27;;;5.40;;
40122;SDS011;25832;45.490;4.912;2022-11-20T03:11:48;11.32;;;5.60;;
40122;SDS011;25832;45.490;4.912;2022-11-20T03:14:14;8.38;;;5.03;;
40122;SDS011;25832;45.490;4.912;2022-11-20T03:16:39;9.98;;;5.43;;
40122;SDS011;25832;45.490;4.912;2022-11-20T03:19:05;10.90;;;6.68;;
40122;SDS011;25832;45.490;4.912;2022-11-20T03:21:34;14.13;;;7.78;;
40122;SDS011;25832;45.490;4.912;2022-11-20T03:24:00;20.65;;;12.98;;
40122;SDS011;25832;45.490;4.912;2022-11-20T03:26:27;22.25;;;12.95;;
40122;SDS011;25832;45.490;4.912;2022-11-20T03:28:54;19.20;;;10.27;;
40122;SDS011;25832;45.490;4.912;2022-11-20T03:31:22;15.68;;;8.85;;
40122;SDS011;25832;45.490;4.912;2022-11-20T03:33:53;13.48;;;8.13;;
40122;SDS011;25832;45.490;4.912;2022-11-20T03:36:19;13.57;;;7.78;;
40122;SDS011;25832;45.490;4.912;2022-11-20T03:38:46;15.15;;;7.50;;
40122;SDS011;25832;45.490;4.912;2022-11-20T03:41:12;17.90;;;7.80;;
40122;SDS011;25832;45.490;4.912;2022-11-20T03:43:40;16.88;;;8.13;;
40122;SDS011;25832;45.490;4.912;2022-11-20T03:46:06;15.25;;;8.38;;
40122;SDS011;25832;45.490;4.912;2022-11-20T03:48:32;12.70;;;7.07;;
40122;SDS011;25832;45.490;4.912;2022-11-20T03:51:14;13.07;;;8.55;;
40122;SDS011;25832;45.490;4.912;2022-11-20T03:53:42;14.38;;;7.07;;
40122;SDS011;25832;45.490;4.912;2022-11-20T03:56:09;14.60;;;8.32;;
40122;SDS011;25832;45.490;4.912;2022-11-20T03:58:36;12.45;;;8.75;;
40122;SDS011;25832;45.490;4.912;2022-11-20T04:01:11;13.63;;;8.02;;
40122;SDS011;25832;45.490;4.912;2022-11-20T04:03:39;13.73;;;7.10;;
40122;SDS011;25832;45.490;4.912;2022-11-20T04:06:06;11.70;;;7.13;;
40122;SDS011;25832;45.490;4.912;2022-11-20T04:08:34;12.98;;;7.35;;
40122;SDS011;25832;45.490;4.912;2022-11-20T04:11:13;15.65;;;8.40;;
40122;SDS011;25832;45.490;4.912;2022-11-20T04:13:45;12.70;;;7.80;;
40122;SDS011;25832;45.490;4.912;2022-11-20T04:16:12;14.18;;;8.00;;
40122;SDS011;25832;45.490;4.912;2022-11-20T04:18:38;11.10;;;6.97;;
40122;SDS011;25832;45.490;4.912;2022-11-20T04:21:04;14.73;;;7.63;;
40122;SDS011;25832;45.490;4.912;2022-11-20T04:23:31;13.82;;;9.30;;
40122;SDS011;25832;45.490;4.912;2022-11-20T04:26:04;15.90;;;6.57;;
40122;SDS011;25832;45.490;4.912;2022-11-20T04:28:31;11.35;;;7.75;;
40122;SDS011;25832;45.490;4.912;2022-11-20T04:31:17;11.75;;;6.88;;
40122;SDS011;25832;45.490;4.912;2022-11-20T04:33:47;13.85;;;7.43;;
40122;SDS011;25832;45.490;4.912;2022-11-20T04:36:14;15.85;;;7.68;;
40122;SDS011;25832;45.490;4.912;2022-11-20T04:38:42;14.07;;;7.97;;
40122;SDS011;25832;45.490;4.912;2022-11-20T04:41:15;12.90;;;8.02;;
40122;SDS011;25832;45.490;4.912;2022-11-20T04:43:45;13.88;;;6.80;;
40122;SDS011;25832;45.490;4.912;2022-11-20T04:46:13;11.82;;;7.57;;
40122;SDS011;25832;45.490;4.912;2022-11-20T04:48:39;11.00;;;6.65;;
40122;SDS011;25832;45.490;4.912;2022-11-20T04:51:05;14.73;;;7.63;;
40122;SDS011;25832;45.490;4.912;2022-11-20T04:53:31;12.80;;;7.75;;
40122;SDS011;25832;45.490;4.912;2022-11-20T04:56:00;12.77;;;7.43;;
40122;SDS011;25832;45.490;4.912;2022-11-20T04:58:26;8.65;;;5.10;;
40122;SDS011;25832;45.490;4.912;2022-11-20T05:00:52;12.85;;;7.72;;
40122;SDS011;25832;45.490;4.912;2022-11-20T05:03:17;13.55;;;7.53;;
40122;SDS011;25832;45.490;4.912;2022-11-20T05:05:43;16.13;;;8.00;;
40122;SDS011;25832;45.490;4.912;2022-11-20T05:08:09;13.93;;;7.70;;
40122;SDS011;25832;45.490;4.912;2022-11-20T05:10:34;12.32;;;7.00;;
40122;SDS011;25832;45.490;4.912;2022-11-20T05:13:00;9.73;;;7.25;;
40122;SDS011;25832;45.490;4.912;2022-11-20T05:15:25;11.23;;;6.93;;
40122;SDS011;25832;45.490;4.912;2022-11-20T05:17:51;11.85;;;7.20;;
40122;SDS011;25832;45.490;4.912;2022-11-20T05:20:18;10.02;;;6.30;;
40122;SDS011;25832;45.490;4.912;2022-11-20T05:22:44;10.77;;;6.93;;
40122;SDS011;25832;45.490;4.912;2022-11-20T05:25:10;12.18;;;7.30;;
40122;SDS011;25832;45.490;4.912;2022-11-20T05:27:36;9.57;;;5.95;;
40122;SDS011;25832;45.490;4.912;2022-11-20T05:30:03;11.40;;;6.72;;
40122;SDS011;25832;45.490;4.912;2022-11-20T05:32:30;10.00;;;6.90;;
40122;SDS011;25832;45.490;4.912;2022-11-20T05:34:55;14.77;;;7.38;;
40122;SDS011;25832;45.490;4.912;2022-11-20T05:37:21;12.10;;;6.28;;
40122;SDS011;25832;45.490;4.912;2022-11-20T05:39:47;10.50;;;6.28;;
40122;SDS011;25832;45.490;4.912;2022-11-20T05:42:12;12.25;;;6.97;;
40122;SDS011;25832;45.490;4.912;2022-11-20T05:44:56;14.65;;;7.30;;
40122;SDS011;25832;45.490;4.912;2022-11-20T05:47:27;11.82;;;6.90;;
40122;SDS011;25832;45.490;4.912;2022-11-20T05:49:53;14.00;;;6.72;;
40122;SDS011;25832;45.490;4.912;2022-11-20T05:52:19;11.40;;;6.50;;
40122;SDS011;25832;45.490;4.912;2022-11-20T05:54:45;10.95;;;7.10;;
40122;SDS011;25832;45.490;4.912;2022-11-20T05:57:11;9.48;;;6.75;;
40122;SDS011;25832;45.490;4.912;2022-11-20T05:59:36;12.00;;;6.78;;
40122;SDS011;25832;45.490;4.912;2022-11-20T06:02:02;14.27;;;7.25;;
40122;SDS011;25832;45.490;4.912;2022-11-20T06:04:28;10.13;;;6.35;;
40122;SDS011;25832;45.490;4.912;2022-11-20T06:06:53;12.95;;;7.07;;
40122;SDS011;25832;45.490;4.912;2022-11-20T06:09:19;14.48;;;6.65;;
40122;SDS011;25832;45.490;4.912;2022-11-20T06:11:44;13.43;;;7.47;;
40122;SDS011;25832;45.490;4.912;2022-11-20T06:14:10;13.18;;;7.70;;
40122;SDS011;25832;45.490;4.912;2022-11-20T06:16:36;10.55;;;7.10;;
40122;SDS011;25832;45.490;4.912;2022-11-20T06:19:02;9.23;;;6.15;;
40122;SDS011;25832;45.490;4.912;2022-11-20T06:21:28;10.30;;;5.82;;
40122;SDS011;25832;45.490;4.912;2022-11-20T06:23:53;8.55;;;6.85;;
40122;SDS011;25832;45.490;4.912;2022-11-20T06:26:20;12.07;;;7.38;;
40122;SDS011;25832;45.490;4.912;2022-11-20T06:28:47;10.90;;;7.03;;
40122;SDS011;25832;45.490;4.912;2022-11-20T06:31:15;8.75;;;5.82;;
40122;SDS011;25832;45.490;4.912;2022-11-20T06:33:42;9.77;;;7.05;;
40122;SDS011;25832;45.490;4.912;2022-11-20T06:36:09;14.68;;;7.68;;
40122;SDS011;25832;45.490;4.912;2022-11-20T06:38:36;15.60;;;7.97;;
40122;SDS011;25832;45.490;4.912;2022-11-20T06:41:03;11.98;;;7.53;;
40122;SDS011;25832;45.490;4.912;2022-11-20T06:43:30;10.80;;;6.70;;
40122;SDS011;25832;45.490;4.912;2022-11-20T06:45:56;12.10;;;7.00;;
40122;SDS011;25832;45.490;4.912;2022-11-20T06:48:23;14.77;;;7.03;;
40122;SDS011;25832;45.490;4.912;2022-11-20T06:50:50;12.35;;;7.28;;
40122;SDS011;25832;45.490;4.912;2022-11-20T06:53:16;13.82;;;7.20;;
40122;SDS011;25832;45.490;4.912;2022-11-20T06:55:42;13.02;;;7.65;;
40122;SDS011;25832;45.490;4.912;2022-11-20T06:58:09;8.02;;;6.18;;
40122;SDS011;25832;45.490;4.912;2022-11-20T07:00:35;9.52;;;6.35;;
40122;SDS011;25832;45.490;4.912;2022-11-20T07:03:04;11.90;;;7.35;;
40122;SDS011;25832;45.490;4.912;2022-11-20T07:05:31;9.90;;;6.75;;
40122;SDS011;25832;45.490;4.912;2022-11-20T07:07:57;13.00;;;7.00;;
40122;SDS011;25832;45.490;4.912;2022-11-20T07:10:23;11.90;;;7.32;;
40122;SDS011;25832;45.490;4.912;2022-11-20T07:12:52;10.88;;;7.43;;
40122;SDS011;25832;45.490;4.912;2022-11-20T07:15:19;9.77;;;6.10;;
40122;SDS011;25832;45.490;4.912;2022-11-20T07:17:45;11.98;;;7.15;;
40122;SDS011;25832;45.490;4.912;2022-11-20T07:20:12;18.80;;;7.18;;
40122;SDS011;25832;45.490;4.912;2022-11-20T07:22:38;9.85;;;6.70;;
40122;SDS011;25832;45.490;4.912;2022-11-20T07:25:04;9.45;;;6.32;;
40122;SDS011;25832;45.490;4.912;2022-11-20T07:27:31;14.77;;;5.40;;
40122;SDS011;25832;45.490;4.912;2022-11-20T07:29:57;13.55;;;6.43;;
40122;SDS011;25832;45.490;4.912;2022-11-20T07:32:23;9.35;;;5.28;;
40122;SDS011;25832;45.490;4.912;2022-11-20T07:34:49;10.10;;;6.00;;
40122;SDS011;25832;45.490;4.912;2022-11-20T07:37:15;9.55;;;5.60;;
40122;SDS011;25832;45.490;4.912;2022-11-20T07:39:40;8.77;;;4.78;;
40122;SDS011;25832;45.490;4.912;2022-11-20T07:42:07;9.63;;;4.90;;
40122;SDS011;25832;45.490;4.912;2022-11-20T07:44:33;12.07;;;5.72;;
40122;SDS011;25832;45.490;4.912;2022-11-20T07:46:59;9.63;;;5.10;;
40122;SDS011;25832;45.490;4.912;2022-11-20T07:49:25;7.85;;;5.50;;
40122;SDS011;25832;45.490;4.912;2022-11-20T07:51:51;9.57;;;5.57;;
40122;SDS011;25832;45.490;4.912;2022-11-20T07:54:18;7.43;;;4.50;;
40122;SDS011;25832;45.490;4.912;2022-11-20T07:56:48;9.05;;;6.43;;
40122;SDS011;25832;45.490;4.912;2022-11-20T07:59:14;8.10;;;5.35;;
40122;SDS011;25832;45.490;4.912;2022-11-20T08:01:40;12.35;;;6.45;;
40122;SDS011;25832;45.490;4.912;2022-11-20T08:04:06;8.75;;;6.00;;
40122;SDS011;25832;45.490;4.912;2022-11-20T08:06:32;13.38;;;6.22;;
40122;SDS011;25832;45.490;4.912;2022-11-20T08:08:58;13.48;;;6.93;;
40122;SDS011;25832;45.490;4.912;2022-11-20T08:11:24;13.43;;;6.38;;
40122;SDS011;25832;45.490;4.912;2022-11-20T08:14:08;11.68;;;5.75;;
40122;SDS011;25832;45.490;4.912;2022-11-20T08:16:37;11.77;;;6.25;;
40122;SDS011;25832;45.490;4.912;2022-11-20T08:19:10;10.88;;;6.18;;
40122;SDS011;25832;45.490;4.912;2022-11-20T08:21:37;11.77;;;6.47;;
40122;SDS011;25832;45.490;4.912;2022-11-20T08:24:03;11.90;;;6.22;;
40122;SDS011;25832;45.490;4.912;2022-11-20T08:26:29;10.75;;;5.95;;
40122;SDS011;25832;45.490;4.912;2022-11-20T08:28:55;12.85;;;6.72;;
40122;SDS011;25832;45.490;4.912;2022-11-20T08:31:22;13.45;;;7.63;;
40122;SDS011;25832;45.490;4.912;2022-11-20T08:33:49;13.80;;;7.40;;
40122;SDS011;25832;45.490;4.912;2022-11-20T08:36:14;24.58;;;9.77;;
40122;SDS011;25832;45.490;4.912;2022-11-20T08:38:40;17.90;;;8.27;;
40122;SDS011;25832;45.490;4.912;2022-11-20T08:41:06;15.93;;;7.13;;
40122;SDS011;25832;45.490;4.912;2022-11-20T08:43:51;14.43;;;5.93;;
40122;SDS011;25832;45.490;4.912;2022-11-20T08:46:20;9.77;;;6.05;;
40122;SDS011;25832;45.490;4.912;2022-11-20T08:48:46;14.32;;;6.88;;
40122;SDS011;25832;45.490;4.912;2022-11-20T08:51:12;12.35;;;5.93;;
40122;SDS011;25832;45.490;4.912;2022-11-20T08:53:38;11.98;;;6.13;;
40122;SDS011;25832;45.490;4.912;2022-11-20T08:56:05;9.48;;;6.10;;
40122;SDS011;25832;45.490;4.912;2022-11-20T08:58:30;8.73;;;6.60;;
40122;SDS011;25832;45.490;4.912;2022-11-20T09:00:56;10.25;;;5.95;;
40122;SDS011;25832;45.490;4.912;2022-11-20T09:03:22;7.53;;;4.93;;
40122;SDS011;25832;45.490;4.912;2022-11-20T09:05:48;12.35;;;4.80;;
40122;SDS011;25832;45.490;4.912;2022-11-20T09:08:14;9.18;;;4.88;;
40122;SDS011;25832;45.490;4.912;2022-11-20T09:10:39;9.30;;;5.57;;
40122;SDS011;25832;45.490;4.912;2022-11-20T09:13:05;9.75;;;6.43;;
40122;SDS011;25832;45.490;4.912;2022-11-20T09:15:31;13.07;;;8.10;;
40122;SDS011;25832;45.490;4.912;2022-11-20T09:17:59;13.43;;;6.78;;
40122;SDS011;25832;45.490;4.912;2022-11-20T09:20:26;8.90;;;5.28;;
40122;SDS011;25832;45.490;4.912;2022-11-20T09:22:54;15.50;;;7.30;;
40122;SDS011;25832;45.490;4.912;2022-11-20T09:25:20;13.85;;;4.38;;
40122;SDS011;25832;45.490;4.912;2022-11-20T09:27:46;15.10;;;6.18;;
40122;SDS011;25832;45.490;4.912;2022-11-20T09:30:12;12.50;;;5.45;;
40122;SDS011;25832;45.490;4.912;2022-11-20T09:32:39;12.43;;;5.55;;
40122;SDS011;25832;45.490;4.912;2022-11-20T09:35:05;14.57;;;6.35;;
40122;SDS011;25832;45.490;4.912;2022-11-20T09:37:31;14.27;;;5.90;;
40122;SDS011;25832;45.490;4.912;2022-11-20T09:39:56;11.40;;;6.18;;
40122;SDS011;25832;45.490;4.912;2022-11-20T09:47:58;12.25;;;7.85;;
40122;SDS011;25832;45.490;4.912;2022-11-20T09:56:28;10.93;;;6.30;;
40122;SDS011;25832;45.490;4.912;2022-11-20T09:58:54;11.93;;;5.57;;
40122;SDS011;25832;45.490;4.912;2022-11-20T10:01:26;8.88;;;5.15;;
40122;SDS011;25832;45.490;4.912;2022-11-20T10:04:08;18.85;;;9.18;;
40122;SDS011;25832;45.490;4.912;2022-11-20T10:30:56;6.97;;;2.63;;
40122;SDS011;25832;45.490;4.912;2022-11-20T10:33:29;5.25;;;2.22;;
40122;SDS011;25832;45.490;4.912;2022-11-20T10:38:54;5.90;;;2.60;;
40122;SDS011;25832;45.490;4.912;2022-11-20T10:41:38;7.70;;;2.92;;
40122;SDS011;25832;45.490;4.912;2022-11-20T10:46:45;7.88;;;2.90;;
40122;SDS011;25832;45.490;4.912;2022-11-20T10:49:12;5.72;;;2.55;;
40122;SDS011;25832;45.490;4.912;2022-11-20T11:00:11;8.68;;;1.92;;
40122;SDS011;25832;45.490;4.912;2022-11-20T11:02:42;8.38;;;2.00;;
40122;SDS011;25832;45.490;4.912;2022-11-20T11:07:57;9.80;;;2.42;;
40122;SDS011;25832;45.490;4.912;2022-11-20T11:12:53;9.55;;;3.20;;
40122;SDS011;25832;45.490;4.912;2022-11-20T11:18:22;7.78;;;2.40;;
40122;SDS011;25832;45.490;4.912;2022-11-20T11:20:53;8.50;;;1.90;;
40122;SDS011;25832;45.490;4.912;2022-11-20T11:23:36;6.22;;;2.65;;
40122;SDS011;25832;45.490;4.912;2022-11-20T11:26:23;4.75;;;2.40;;
40122;SDS011;25832;45.490;4.912;2022-11-20T11:28:53;5.32;;;2.15;;
40122;SDS011;25832;45.490;4.912;2022-11-20T11:31:30;8.35;;;2.03;;
40122;SDS011;25832;45.490;4.912;2022-11-20T11:36:56;4.53;;;2.13;;
40122;SDS011;25832;45.490;4.912;2022-11-20T11:39:23;10.52;;;2.80;;
40122;SDS011;25832;45.490;4.912;2022-11-20T11:41:50;6.28;;;2.45;;
40122;SDS011;25832;45.490;4.912;2022-11-20T11:44:17;8.40;;;2.42;;
40122;SDS011;25832;45.490;4.912;2022-11-20T11:47:05;5.18;;;2.63;;
40122;SDS011;25832;45.490;4.912;2022-11-20T11:49:36;7.65;;;2.10;;
40122;SDS011;25832;45.490;4.912;2022-11-20T11:57:42;7.07;;;2.38;;
40122;SDS011;25832;45.490;4.912;2022-11-20T12:00:03;6.40;;;2.47;;
40122;SDS011;25832;45.490;4.912;2022-11-20T12:02:57;5.18;;;2.53;;
40122;SDS011;25832;45.490;4.912;2022-11-20T12:08:31;4.28;;;1.98;;
40122;SDS011;25832;45.490;4.912;2022-11-20T12:11:13;5.30;;;1.90;;
40122;SDS011;25832;45.490;4.912;2022-11-20T12:13:53;7.18;;;3.33;;
40122;SDS011;25832;45.490;4.912;2022-11-20T12:16:23;6.80;;;3.10;;
40122;SDS011;25832;45.490;4.912;2022-11-20T12:18:50;7.25;;;2.00;;
40122;SDS011;25832;45.490;4.912;2022-11-20T12:21:21;5.13;;;2.53;;
40122;SDS011;25832;45.490;4.912;2022-11-20T12:44:01;6.85;;;1.88;;
40122;SDS011;25832;45.490;4.912;2022-11-20T12:46:51;3.30;;;1.70;;
40122;SDS011;25832;45.490;4.912;2022-11-20T12:49:56;4.07;;;1.98;;
40122;SDS011;25832;45.490;4.912;2022-11-20T12:52:42;8.23;;;2.05;;
40122;SDS011;25832;45.490;4.912;2022-11-20T13:03:26;3.20;;;1.52;;
40122;SDS011;25832;45.490;4.912;2022-11-20T13:06:14;5.53;;;2.67;;
40122;SDS011;25832;45.490;4.912;2022-11-20T13:08:43;2.83;;;1.33;;
40122;SDS011;25832;45.490;4.912;2022-11-20T13:11:20;4.10;;;1.40;;
40122;SDS011;25832;45.490;4.912;2022-11-20T13:19:25;4.55;;;1.63;;
40122;SDS011;25832;45.490;4.912;2022-11-20T13:21:53;5.75;;;1.70;;
40122;SDS011;25832;45.490;4.912;2022-11-20T13:26:45;4.18;;;2.20;;
40122;SDS011;25832;45.490;4.912;2022-11-20T13:29:12;2.47;;;1.25;;
40122;SDS011;25832;45.490;4.912;2022-11-20T13:31:45;8.13;;;2.00;;
40122;SDS011;25832;45.490;4.912;2022-11-20T13:34:13;2.65;;;1.42;;
40122;SDS011;25832;45.490;4.912;2022-11-20T13:36:50;2.88;;;1.40;;
40122;SDS011;25832;45.490;4.912;2022-11-20T13:39:24;1.98;;;1.20;;
40122;SDS011;25832;45.490;4.912;2022-11-20T13:41:55;4.53;;;1.75;;
40122;SDS011;25832;45.490;4.912;2022-11-20T13:44:38;2.60;;;1.30;;
40122;SDS011;25832;45.490;4.912;2022-11-20T13:47:28;4.65;;;1.52;;
40122;SDS011;25832;45.490;4.912;2022-11-20T13:49:57;3.28;;;1.85;;
40122;SDS011;25832;45.490;4.912;2022-11-20T14:03:41;3.22;;;1.20;;
40122;SDS011;25832;45.490;4.912;2022-11-20T14:06:12;7.38;;;1.98;;
40122;SDS011;25832;45.490;4.912;2022-11-20T14:08:51;4.97;;;1.83;;
40122;SDS011;25832;45.490;4.912;2022-11-20T14:14:19;2.78;;;1.58;;
40122;SDS011;25832;45.490;4.912;2022-11-20T14:16:41;5.10;;;1.65;;
40122;SDS011;25832;45.490;4.912;2022-11-20T14:21:51;2.65;;;1.50;;
40122;SDS011;25832;45.490;4.912;2022-11-20T14:24:33;2.85;;;1.48;;
40122;SDS011;25832;45.490;4.912;2022-11-20T14:26:58;2.47;;;1.45;;
40122;SDS011;25832;45.490;4.912;2022-11-20T14:29:28;3.65;;;1.45;;
40122;SDS011;25832;45.490;4.912;2022-11-20T14:31:59;4.13;;;1.27;;
40122;SDS011;25832;45.490;4.912;2022-11-20T14:34:27;4.95;;;1.70;;
40122;SDS011;25832;45.490;4.912;2022-11-20T14:36:58;3.05;;;1.48;;
40122;SDS011;25832;45.490;4.912;2022-11-20T14:39:30;4.43;;;1.88;;
40122;SDS011;25832;45.490;4.912;2022-11-20T14:41:58;6.97;;;1.70;;
40122;SDS011;25832;45.490;4.912;2022-11-20T14:44:26;5.63;;;1.77;;
40122;SDS011;25832;45.490;4.912;2022-11-20T14:46:54;2.42;;;1.55;;
40122;SDS011;25832;45.490;4.912;2022-11-20T14:49:20;3.28;;;1.90;;
40122;SDS011;25832;45.490;4.912;2022-11-20T14:51:46;8.57;;;1.70;;
40122;SDS011;25832;45.490;4.912;2022-11-20T14:54:22;2.53;;;1.42;;
40122;SDS011;25832;45.490;4.912;2022-11-20T14:56:58;3.47;;;1.20;;
40122;SDS011;25832;45.490;4.912;2022-11-20T14:59:32;2.17;;;1.30;;
40122;SDS011;25832;45.490;4.912;2022-11-20T15:02:06;3.13;;;2.28;;
40122;SDS011;25832;45.490;4.912;2022-11-20T15:04:51;5.25;;;1.50;;
40122;SDS011;25832;45.490;4.912;2022-11-20T15:07:28;3.45;;;2.60;;
40122;SDS011;25832;45.490;4.912;2022-11-20T15:10:38;3.60;;;2.38;;
40122;SDS011;25832;45.490;4.912;2022-11-20T15:12:50;4.65;;;1.30;;
40122;SDS011;25832;45.490;4.912;2022-11-20T15:16:04;3.30;;;1.63;;
40122;SDS011;25832;45.490;4.912;2022-11-20T15:18:10;7.05;;;1.92;;
40122;SDS011;25832;45.490;4.912;2022-11-20T15:20:47;2.95;;;1.55;;
40122;SDS011;25832;45.490;4.912;2022-11-20T15:23:15;4.57;;;1.75;;
40122;SDS011;25832;45.490;4.912;2022-11-20T15:25:43;3.42;;;1.80;;
40122;SDS011;25832;45.490;4.912;2022-11-20T15:28:13;2.90;;;1.83;;
40122;SDS011;25832;45.490;4.912;2022-11-20T15:30:43;4.45;;;2.40;;
40122;SDS011;25832;45.490;4.912;2022-11-20T15:33:10;5.53;;;2.15;;
40122;SDS011;25832;45.490;4.912;2022-11-20T15:35:36;2.30;;;1.40;;
40122;SDS011;25832;45.490;4.912;2022-11-20T15:38:01;2.75;;;1.70;;
40122;SDS011;25832;45.490;4.912;2022-11-20T15:40:27;2.85;;;1.45;;
40122;SDS011;25832;45.490;4.912;2022-11-20T15:42:53;3.78;;;1.67;;
40122;SDS011;25832;45.490;4.912;2022-11-20T15:45:28;8.82;;;2.00;;
40122;SDS011;25832;45.490;4.912;2022-11-20T15:48:27;3.88;;;1.80;;
40122;SDS011;25832;45.490;4.912;2022-11-20T15:53:39;4.10;;;2.03;;
40122;SDS011;25832;45.490;4.912;2022-11-20T15:56:06;3.13;;;1.77;;
40122;SDS011;25832;45.490;4.912;2022-11-20T15:58:36;4.00;;;1.70;;
40122;SDS011;25832;45.490;4.912;2022-11-20T16:01:02;3.17;;;1.55;;
40122;SDS011;25832;45.490;4.912;2022-11-20T16:03:28;2.35;;;1.30;;
40122;SDS011;25832;45.490;4.912;2022-11-20T16:05:53;4.07;;;1.42;;
40122;SDS011;25832;45.490;4.912;2022-11-20T16:08:19;5.75;;;1.65;;
40122;SDS011;25832;45.490;4.912;2022-11-20T16:10:44;5.20;;;1.90;;
40122;SDS011;25832;45.490;4.912;2022-11-20T16:13:14;3.05;;;1.30;;
40122;SDS011;25832;45.490;4.912;2022-11-20T16:16:04;3.33;;;1.30;;
40122;SDS011;25832;45.490;4.912;2022-11-20T16:18:33;4.65;;;1.48;;
40122;SDS011;25832;45.490;4.912;2022-11-20T16:20:58;3.25;;;1.50;;
40122;SDS011;25832;45.490;4.912;2022-11-20T16:23:24;5.88;;;2.20;;
40122;SDS011;25832;45.490;4.912;2022-11-20T16:25:50;5.85;;;3.35;;
40122;SDS011;25832;45.490;4.912;2022-11-20T16:28:16;4.22;;;2.13;;
40122;SDS011;25832;45.490;4.912;2022-11-20T16:30:42;17.92;;;8.30;;
40122;SDS011;25832;45.490;4.912;2022-11-20T16:33:09;13.68;;;6.45;;
40122;SDS011;25832;45.490;4.912;2022-11-20T16:35:37;6.35;;;3.22;;
40122;SDS011;25832;45.490;4.912;2022-11-20T16:38:02;6.55;;;3.30;;
40122;SDS011;25832;45.490;4.912;2022-11-20T16:40:28;6.55;;;2.83;;
40122;SDS011;25832;45.490;4.912;2022-11-20T16:42:54;4.03;;;2.13;;
40122;SDS011;25832;45.490;4.912;2022-11-20T16:45:20;7.20;;;2.15;;
40122;SDS011;25832;45.490;4.912;2022-11-20T16:47:45;6.70;;;2.50;;
40122;SDS011;25832;45.490;4.912;2022-11-20T16:50:17;3.08;;;1.90;;
40122;SDS011;25832;45.490;4.912;2022-11-20T16:53:00;3.63;;;1.98;;
40122;SDS011;25832;45.490;4.912;2022-11-20T16:55:26;4.05;;;2.05;;
40122;SDS011;25832;45.490;4.912;2022-11-20T16:57:52;5.65;;;2.22;;
40122;SDS011;25832;45.490;4.912;2022-11-20T17:00:17;5.07;;;2.38;;
40122;SDS011;25832;45.490;4.912;2022-11-20T17:02:43;5.35;;;2.20;;
40122;SDS011;25832;45.490;4.912;2022-11-20T17:05:09;3.05;;;1.88;;
40122;SDS011;25832;45.490;4.912;2022-11-20T17:07:34;4.30;;;2.25;;